createdAt,value
2019-01-11T00:02:21.332Z,1.74
2019-01-11T00:07:27.799Z,1.78
2019-01-11T00:12:34.244Z,1.71
2019-01-11T00:17:40.669Z,1.77
2019-01-11T00:22:46.746Z,1.77
2019-01-11T00:27:53.132Z,1.72
2019-01-11T00:32:59.623Z,1.73
2019-01-11T00:38:06.930Z,1.62
2019-01-11T00:43:15.221Z,1.53
2019-01-11T00:48:21.236Z,1.54
2019-01-11T00:53:27.394Z,1.47
2019-01-11T00:58:33.689Z,1.47
2019-01-11T01:03:40.080Z,1.47
2019-01-11T01:08:46.459Z,1.34
2019-01-11T01:13:52.602Z,1.37
2019-01-11T01:18:58.899Z,1.44
2019-01-11T01:24:05.989Z,1.41
2019-01-11T01:29:12.394Z,1.42
2019-01-11T01:34:18.645Z,1.40
2019-01-11T01:39:24.954Z,1.45
2019-01-11T01:44:31.102Z,1.41
2019-01-11T01:49:37.189Z,1.34
2019-01-11T01:54:43.490Z,1.31
2019-01-11T01:59:49.969Z,1.23
2019-01-11T02:04:57.462Z,1.29
2019-01-11T02:10:04.167Z,1.22
2019-01-11T02:15:12.187Z,1.23
2019-01-11T02:20:19.092Z,1.12
2019-01-11T02:25:25.470Z,1.06
2019-01-11T02:30:31.782Z,0.93
2019-01-11T02:35:38.132Z,0.96
2019-01-11T02:40:45.611Z,0.92
2019-01-11T02:45:51.815Z,0.96
2019-01-11T02:50:57.861Z,0.82
2019-01-11T02:56:04.065Z,0.78
2019-01-11T03:01:10.125Z,0.70
2019-01-11T03:06:16.219Z,0.71
2019-01-11T03:11:22.503Z,0.89
2019-01-11T03:16:29.093Z,0.92
2019-01-11T03:21:35.377Z,0.91
2019-01-11T03:26:41.748Z,0.96
2019-01-11T03:31:47.699Z,0.94
2019-01-11T03:36:53.898Z,0.99
2019-01-11T03:42:01.920Z,0.93
2019-01-11T03:47:08.269Z,0.89
2019-01-11T03:52:14.259Z,0.72
2019-01-11T03:57:20.462Z,0.75
2019-01-11T04:02:26.516Z,0.61
2019-01-11T04:07:32.815Z,0.53
2019-01-11T04:12:38.820Z,0.51
2019-01-11T04:17:45.047Z,0.51
2019-01-11T04:22:52.747Z,0.52
2019-01-11T04:27:59.087Z,0.59
2019-01-11T04:33:05.930Z,0.47
2019-01-11T04:38:12.213Z,0.56
2019-01-11T04:43:18.613Z,0.56
2019-01-11T04:48:24.998Z,0.74
2019-01-11T04:53:31.152Z,0.69
2019-01-11T04:58:37.461Z,0.68
2019-01-11T05:03:43.427Z,0.69
2019-01-11T05:08:49.525Z,0.73
2019-01-11T05:13:55.934Z,0.62
2019-01-11T05:19:02.363Z,0.66
2019-01-11T05:24:08.434Z,0.54
2019-01-11T05:29:14.734Z,0.48
2019-01-11T05:34:20.794Z,0.39
2019-01-11T05:39:26.656Z,0.39
2019-01-11T05:44:32.620Z,0.42
2019-01-11T05:49:38.881Z,0.27
2019-01-11T05:54:45.000Z,0.20
2019-01-11T05:59:51.801Z,0.27
2019-01-11T06:04:59.586Z,0.16
2019-01-11T06:10:11.735Z,0.16
2019-01-11T06:15:18.144Z,0.10
2019-01-11T06:20:30.232Z,0.07
2019-01-11T06:25:32.400Z,0.05
2019-01-11T06:30:38.691Z,0.01
2019-01-11T06:35:44.651Z,0.03
2019-01-11T06:40:50.929Z,0.02
2019-01-11T06:45:57.111Z,0.05
2019-01-11T06:51:03.284Z,0.11
2019-01-11T06:56:09.568Z,0.07
2019-01-11T07:01:16.068Z,0.08
2019-01-11T07:06:22.329Z,0.02
2019-01-11T07:11:28.444Z,0.02
2019-01-11T07:16:34.714Z,-0.03
2019-01-11T07:21:41.586Z,0.03
2019-01-11T07:26:47.746Z,0.05
2019-01-11T07:31:54.242Z,0.03
2019-01-11T07:37:00.201Z,0.07
2019-01-11T07:42:06.292Z,0.05
2019-01-11T07:47:13.408Z,0.12
2019-01-11T07:52:19.593Z,0.26
2019-01-11T07:57:25.744Z,0.34
2019-01-11T08:02:32.558Z,0.51
2019-01-11T08:07:39.146Z,0.51
2019-01-11T08:12:45.619Z,0.70
2019-01-11T08:17:51.713Z,0.79
2019-01-11T08:22:57.870Z,0.92
2019-01-11T08:28:04.160Z,1.07
2019-01-11T08:33:10.649Z,1.29
2019-01-11T08:38:17.038Z,1.24
2019-01-11T08:43:23.298Z,1.41
2019-01-11T08:48:30.628Z,1.49
2019-01-11T08:53:36.996Z,1.44
2019-01-11T08:58:43.788Z,1.52
2019-01-11T09:03:49.838Z,1.75
2019-01-11T09:08:56.050Z,1.86
2019-01-11T09:14:03.541Z,1.93
2019-01-11T09:19:09.956Z,2.06
2019-01-11T09:24:16.180Z,1.95
2019-01-11T09:29:22.607Z,1.94
2019-01-11T09:34:29.021Z,1.92
2019-01-11T09:39:35.163Z,2.04
2019-01-11T09:44:41.215Z,2.08
2019-01-11T09:49:47.408Z,2.17
2019-01-11T09:54:53.569Z,2.23
2019-01-11T09:59:59.853Z,2.37
2019-01-11T10:05:08.184Z,2.43
2019-01-11T10:10:15.388Z,2.44
2019-01-11T10:15:21.887Z,2.44
2019-01-11T10:20:28.358Z,2.44
2019-01-11T10:25:34.574Z,2.50
2019-01-11T10:30:40.727Z,2.48
2019-01-11T10:35:48.136Z,2.55
2019-01-11T10:40:55.321Z,2.42
2019-01-11T10:46:02.921Z,2.39
2019-01-11T10:51:09.134Z,2.37
2019-01-11T10:56:15.280Z,2.40
2019-01-11T11:01:21.159Z,2.59
2019-01-11T11:06:27.118Z,2.58
2019-01-11T11:11:33.101Z,2.58
2019-01-11T11:16:39.148Z,2.61
2019-01-11T11:21:45.162Z,2.46
2019-01-11T11:26:51.241Z,2.52
2019-01-11T11:31:57.307Z,2.46
2019-01-11T11:37:03.171Z,2.36
2019-01-11T11:42:09.152Z,2.28
2019-01-11T11:47:15.350Z,2.28
2019-01-11T11:52:21.685Z,2.28
2019-01-11T11:57:27.777Z,2.34
2019-01-11T12:02:34.395Z,2.34
2019-01-11T12:07:40.886Z,2.40
2019-01-11T12:12:49.838Z,2.28
2019-01-11T12:17:56.096Z,2.42
2019-01-11T12:23:02.180Z,2.53
2019-01-11T12:28:08.280Z,2.50
2019-01-11T12:33:14.808Z,2.72
2019-01-11T12:38:21.113Z,2.74
2019-01-11T12:43:27.500Z,2.69
2019-01-11T12:48:33.662Z,2.81
2019-01-11T12:53:39.531Z,2.60
2019-01-11T12:58:45.729Z,2.57
2019-01-11T13:03:51.882Z,2.60
2019-01-11T13:08:58.185Z,2.55
2019-01-11T13:14:04.777Z,2.60
2019-01-11T13:19:11.166Z,2.64
2019-01-11T13:24:17.316Z,2.62
2019-01-11T13:29:23.712Z,2.63
2019-01-11T13:34:30.314Z,2.63
2019-01-11T13:39:37.990Z,2.68
2019-01-11T13:44:44.169Z,2.61
2019-01-11T13:49:50.472Z,2.60
2019-01-11T13:54:56.625Z,2.49
2019-01-11T14:00:03.924Z,2.53
2019-01-11T14:05:10.619Z,2.47
2019-01-11T14:10:16.708Z,2.42
2019-01-11T14:15:22.515Z,2.45
2019-01-11T14:20:28.879Z,2.54
2019-01-11T14:25:35.269Z,2.51
2019-01-11T14:30:41.541Z,2.53
2019-01-11T14:35:48.158Z,2.62
2019-01-11T14:40:54.603Z,2.67
2019-01-11T14:46:00.816Z,2.57
2019-01-11T14:51:08.493Z,2.56
2019-01-11T14:56:14.701Z,2.61
2019-01-11T15:01:20.956Z,2.54
2019-01-11T15:06:26.962Z,2.59
2019-01-11T15:11:33.310Z,2.68
2019-01-11T15:16:39.683Z,2.63
2019-01-11T15:21:45.904Z,2.62
2019-01-11T15:26:52.261Z,2.67
2019-01-11T15:31:58.629Z,2.74
2019-01-11T15:37:05.584Z,2.83
2019-01-11T15:42:11.822Z,2.89
2019-01-11T15:47:18.118Z,2.98
2019-01-11T15:52:23.977Z,2.89
2019-01-11T15:57:42.036Z,2.88
2019-01-11T16:02:48.200Z,2.94
2019-01-11T16:07:54.583Z,2.96
2019-01-11T16:13:02.434Z,2.88
2019-01-11T16:18:16.692Z,2.84
2019-01-11T16:23:23.162Z,2.84
2019-01-11T16:28:30.032Z,2.77
2019-01-11T16:33:36.121Z,2.76
2019-01-11T16:38:42.085Z,2.74
2019-01-11T16:43:48.475Z,2.76
2019-01-11T16:48:54.828Z,2.80
2019-01-11T16:54:00.814Z,2.82
2019-01-11T16:59:07.533Z,2.84
2019-01-11T17:04:13.840Z,2.88
2019-01-11T17:09:19.840Z,2.85
2019-01-11T17:14:26.253Z,2.91
2019-01-11T17:19:32.315Z,2.94
2019-01-11T17:24:38.499Z,3.03
2019-01-11T17:29:47.211Z,3.13
2019-01-11T17:34:52.080Z,3.18
2019-01-11T17:39:58.208Z,3.21
2019-01-11T17:45:06.496Z,3.25
2019-01-11T17:50:15.143Z,3.19
2019-01-11T17:55:21.460Z,3.20
2019-01-11T18:00:27.684Z,3.28
2019-01-11T18:05:34.190Z,3.32
2019-01-11T18:10:41.200Z,3.42
2019-01-11T18:15:47.664Z,3.52
2019-01-11T18:20:54.160Z,3.59
2019-01-11T18:26:00.634Z,3.69
2019-01-11T18:31:07.022Z,3.71
2019-01-11T18:36:13.085Z,3.79
2019-01-11T18:41:19.239Z,3.78
2019-01-11T18:46:25.555Z,3.89
2019-01-11T18:51:31.586Z,3.96
2019-01-11T18:56:37.581Z,4.00
2019-01-11T19:01:43.786Z,3.98
2019-01-11T19:06:50.229Z,4.01
2019-01-11T19:11:56.550Z,4.14
2019-01-11T19:17:02.951Z,4.11
2019-01-11T19:22:09.468Z,4.13
2019-01-11T19:27:15.911Z,4.21
2019-01-11T19:32:23.498Z,4.27
2019-01-11T19:37:29.586Z,4.28
2019-01-11T19:42:35.985Z,4.31
2019-01-11T19:47:42.117Z,4.32
2019-01-11T19:52:48.342Z,4.38
2019-01-11T19:57:54.381Z,4.35
2019-01-11T20:03:01.700Z,4.32
2019-01-11T20:08:09.534Z,4.24
2019-01-11T20:13:17.680Z,4.21
2019-01-11T20:18:24.647Z,4.07
2019-01-11T20:23:34.892Z,4.01
2019-01-11T20:28:38.954Z,3.80
2019-01-11T20:33:45.117Z,3.69
2019-01-11T20:38:50.975Z,3.49
2019-01-11T20:43:56.839Z,3.43
2019-01-11T20:49:02.994Z,3.27
2019-01-11T20:54:09.902Z,3.22
2019-01-11T20:59:16.340Z,3.09
2019-01-11T21:04:22.606Z,3.09
2019-01-11T21:09:28.800Z,3.09
2019-01-11T21:14:35.133Z,2.96
2019-01-11T21:19:41.417Z,3.01
2019-01-11T21:24:47.782Z,2.95
2019-01-11T21:29:54.194Z,2.91
2019-01-11T21:35:00.481Z,2.82
2019-01-11T21:40:09.133Z,2.82
2019-01-11T21:45:15.608Z,2.77
2019-01-11T21:50:24.680Z,2.77
2019-01-11T21:55:31.245Z,2.71
2019-01-11T22:00:39.277Z,2.68
2019-01-11T22:05:45.883Z,2.65
2019-01-11T22:10:52.417Z,2.64
2019-01-11T22:15:58.850Z,2.62
2019-01-11T22:21:05.206Z,2.63
2019-01-11T22:26:11.803Z,2.69
2019-01-11T22:31:17.885Z,2.68
2019-01-11T22:36:24.584Z,2.73
2019-01-11T22:41:30.886Z,2.69
2019-01-11T22:46:37.319Z,2.68
2019-01-11T22:51:44.546Z,2.64
2019-01-11T22:56:51.236Z,2.60
2019-01-11T23:02:01.564Z,2.56
2019-01-11T23:07:10.914Z,2.50
2019-01-11T23:12:25.105Z,2.50
2019-01-11T23:17:37.101Z,2.50
2019-01-11T23:22:43.512Z,2.42
2019-01-11T23:27:49.991Z,2.42
2019-01-11T23:32:56.376Z,2.45
2019-01-11T23:38:03.061Z,2.36
2019-01-11T23:43:09.449Z,2.36
2019-01-11T23:48:15.630Z,2.28
2019-01-11T23:53:21.698Z,2.23
2019-01-11T23:58:27.831Z,2.20
